sensor_id;sensor_type;location;lat;lon;timestamp;P1;durP1;ratioP1;P2;durP2;ratioP2
56670;SDS011;42545;50.054;8.306;2023-05-10T00:02:16;0.60;;;0.60;;
56670;SDS011;42545;50.054;8.306;2023-05-10T00:04:43;0.85;;;0.70;;
56670;SDS011;42545;50.054;8.306;2023-05-10T00:07:09;2.08;;;0.85;;
56670;SDS011;42545;50.054;8.306;2023-05-10T00:09:36;1.10;;;0.85;;
56670;SDS011;42545;50.054;8.306;2023-05-10T00:12:02;0.70;;;0.63;;
56670;SDS011;42545;50.054;8.306;2023-05-10T00:14:31;1.65;;;0.63;;
56670;SDS011;42545;50.054;8.306;2023-05-10T00:16:57;0.63;;;0.60;;
56670;SDS011;42545;50.054;8.306;2023-05-10T00:19:24;0.75;;;0.70;;
56670;SDS011;42545;50.054;8.306;2023-05-10T00:21:50;1.77;;;0.60;;
56670;SDS011;42545;50.054;8.306;2023-05-10T00:24:17;0.50;;;0.50;;
56670;SDS011;42545;50.054;8.306;2023-05-10T00:26:43;0.45;;;0.45;;
56670;SDS011;42545;50.054;8.306;2023-05-10T00:29:10;0.85;;;0.70;;
56670;SDS011;42545;50.054;8.306;2023-05-10T00:31:38;0.80;;;0.70;;
56670;SDS011;42545;50.054;8.306;2023-05-10T00:34:04;0.93;;;0.70;;
56670;SDS011;42545;50.054;8.306;2023-05-10T00:36:31;0.95;;;0.57;;
56670;SDS011;42545;50.054;8.306;2023-05-10T00:38:57;0.77;;;0.50;;
56670;SDS011;42545;50.054;8.306;2023-05-10T00:41:24;1.73;;;0.75;;
56670;SDS011;42545;50.054;8.306;2023-05-10T00:43:50;0.50;;;0.50;;
56670;SDS011;42545;50.054;8.306;2023-05-10T00:46:17;1.17;;;0.73;;
56670;SDS011;42545;50.054;8.306;2023-05-10T00:48:45;1.40;;;0.70;;
56670;SDS011;42545;50.054;8.306;2023-05-10T00:51:12;1.50;;;0.70;;
56670;SDS011;42545;50.054;8.306;2023-05-10T00:53:39;1.25;;;0.93;;
56670;SDS011;42545;50.054;8.306;2023-05-10T00:56:06;1.33;;;0.52;;
56670;SDS011;42545;50.054;8.306;2023-05-10T00:58:33;1.05;;;0.60;;
56670;SDS011;42545;50.054;8.306;2023-05-10T01:01:00;0.90;;;0.60;;
56670;SDS011;42545;50.054;8.306;2023-05-10T01:03:27;0.55;;;0.52;;
56670;SDS011;42545;50.054;8.306;2023-05-10T01:05:56;0.95;;;0.77;;
56670;SDS011;42545;50.054;8.306;2023-05-10T01:08:22;1.17;;;0.70;;
56670;SDS011;42545;50.054;8.306;2023-05-10T01:10:49;0.50;;;0.50;;
56670;SDS011;42545;50.054;8.306;2023-05-10T01:13:18;0.65;;;0.65;;
56670;SDS011;42545;50.054;8.306;2023-05-10T01:15:55;2.03;;;0.63;;
56670;SDS011;42545;50.054;8.306;2023-05-10T01:18:22;0.52;;;0.50;;
56670;SDS011;42545;50.054;8.306;2023-05-10T01:20:53;0.88;;;0.75;;
56670;SDS011;42545;50.054;8.306;2023-05-10T01:23:44;0.50;;;0.50;;
56670;SDS011;42545;50.054;8.306;2023-05-10T01:26:34;1.35;;;0.70;;
56670;SDS011;42545;50.054;8.306;2023-05-10T01:29:13;0.40;;;0.40;;
56670;SDS011;42545;50.054;8.306;2023-05-10T01:34:55;0.50;;;0.50;;
56670;SDS011;42545;50.054;8.306;2023-05-10T01:37:30;0.50;;;0.50;;
56670;SDS011;42545;50.054;8.306;2023-05-10T01:40:05;0.77;;;0.50;;
56670;SDS011;42545;50.054;8.306;2023-05-10T01:42:40;0.60;;;0.57;;
56670;SDS011;42545;50.054;8.306;2023-05-10T01:45:14;0.80;;;0.68;;
56670;SDS011;42545;50.054;8.306;2023-05-10T01:47:48;0.60;;;0.60;;
56670;SDS011;42545;50.054;8.306;2023-05-10T01:50:22;0.40;;;0.40;;
56670;SDS011;42545;50.054;8.306;2023-05-10T01:52:54;0.50;;;0.47;;
56670;SDS011;42545;50.054;8.306;2023-05-10T01:55:23;0.30;;;0.30;;
56670;SDS011;42545;50.054;8.306;2023-05-10T01:57:55;0.60;;;0.60;;
56670;SDS011;42545;50.054;8.306;2023-05-10T02:00:26;0.40;;;0.40;;
56670;SDS011;42545;50.054;8.306;2023-05-10T02:02:56;0.35;;;0.35;;
56670;SDS011;42545;50.054;8.306;2023-05-10T02:05:23;0.50;;;0.50;;
56670;SDS011;42545;50.054;8.306;2023-05-10T02:07:51;0.50;;;0.50;;
56670;SDS011;42545;50.054;8.306;2023-05-10T02:10:18;0.50;;;0.50;;
56670;SDS011;42545;50.054;8.306;2023-05-10T02:12:47;0.40;;;0.40;;
56670;SDS011;42545;50.054;8.306;2023-05-10T02:15:17;0.32;;;0.32;;
56670;SDS011;42545;50.054;8.306;2023-05-10T02:17:45;0.40;;;0.40;;
56670;SDS011;42545;50.054;8.306;2023-05-10T02:20:14;0.57;;;0.52;;
56670;SDS011;42545;50.054;8.306;2023-05-10T02:22:43;0.40;;;0.40;;
56670;SDS011;42545;50.054;8.306;2023-05-10T02:25:11;0.50;;;0.50;;
56670;SDS011;42545;50.054;8.306;2023-05-10T02:27:40;0.38;;;0.38;;
56670;SDS011;42545;50.054;8.306;2023-05-10T02:30:09;0.60;;;0.60;;
56670;SDS011;42545;50.054;8.306;2023-05-10T02:32:37;0.47;;;0.47;;
56670;SDS011;42545;50.054;8.306;2023-05-10T02:35:04;0.50;;;0.50;;
56670;SDS011;42545;50.054;8.306;2023-05-10T02:37:34;0.55;;;0.52;;
56670;SDS011;42545;50.054;8.306;2023-05-10T02:40:03;0.40;;;0.40;;
56670;SDS011;42545;50.054;8.306;2023-05-10T02:42:32;0.50;;;0.50;;
56670;SDS011;42545;50.054;8.306;2023-05-10T02:45:01;0.40;;;0.40;;
56670;SDS011;42545;50.054;8.306;2023-05-10T02:47:33;0.30;;;0.30;;
56670;SDS011;42545;50.054;8.306;2023-05-10T02:50:00;0.30;;;0.30;;
56670;SDS011;42545;50.054;8.306;2023-05-10T02:52:28;0.40;;;0.40;;
56670;SDS011;42545;50.054;8.306;2023-05-10T02:55:04;0.30;;;0.30;;
56670;SDS011;42545;50.054;8.306;2023-05-10T02:57:32;0.40;;;0.32;;
56670;SDS011;42545;50.054;8.306;2023-05-10T03:00:00;0.40;;;0.40;;
56670;SDS011;42545;50.054;8.306;2023-05-10T03:02:28;0.30;;;0.30;;
56670;SDS011;42545;50.054;8.306;2023-05-10T03:04:55;0.30;;;0.30;;
56670;SDS011;42545;50.054;8.306;2023-05-10T03:07:22;0.30;;;0.30;;
56670;SDS011;42545;50.054;8.306;2023-05-10T03:09:49;0.20;;;0.20;;
56670;SDS011;42545;50.054;8.306;2023-05-10T03:12:19;0.30;;;0.30;;
56670;SDS011;42545;50.054;8.306;2023-05-10T03:14:54;0.30;;;0.30;;
56670;SDS011;42545;50.054;8.306;2023-05-10T03:17:29;0.30;;;0.30;;
56670;SDS011;42545;50.054;8.306;2023-05-10T03:20:03;0.38;;;0.38;;
56670;SDS011;42545;50.054;8.306;2023-05-10T03:22:34;0.40;;;0.40;;
56670;SDS011;42545;50.054;8.306;2023-05-10T03:25:04;0.40;;;0.40;;
56670;SDS011;42545;50.054;8.306;2023-05-10T03:27:35;0.40;;;0.40;;
56670;SDS011;42545;50.054;8.306;2023-05-10T03:30:02;0.30;;;0.30;;
56670;SDS011;42545;50.054;8.306;2023-05-10T03:32:31;0.30;;;0.30;;
56670;SDS011;42545;50.054;8.306;2023-05-10T03:34:59;0.35;;;0.30;;
56670;SDS011;42545;50.054;8.306;2023-05-10T03:37:26;0.40;;;0.40;;
56670;SDS011;42545;50.054;8.306;2023-05-10T03:39:52;0.30;;;0.30;;
56670;SDS011;42545;50.054;8.306;2023-05-10T03:42:19;0.50;;;0.40;;
56670;SDS011;42545;50.054;8.306;2023-05-10T03:44:47;0.45;;;0.45;;
56670;SDS011;42545;50.054;8.306;2023-05-10T03:47:14;0.40;;;0.32;;
56670;SDS011;42545;50.054;8.306;2023-05-10T03:49:41;0.30;;;0.30;;
56670;SDS011;42545;50.054;8.306;2023-05-10T03:52:08;0.28;;;0.28;;
56670;SDS011;42545;50.054;8.306;2023-05-10T03:54:34;0.57;;;0.50;;
56670;SDS011;42545;50.054;8.306;2023-05-10T03:57:01;0.55;;;0.55;;
56670;SDS011;42545;50.054;8.306;2023-05-10T03:59:28;0.60;;;0.60;;
56670;SDS011;42545;50.054;8.306;2023-05-10T04:01:56;0.63;;;0.50;;
56670;SDS011;42545;50.054;8.306;2023-05-10T04:04:22;0.57;;;0.52;;
56670;SDS011;42545;50.054;8.306;2023-05-10T04:06:49;1.33;;;1.20;;
56670;SDS011;42545;50.054;8.306;2023-05-10T04:09:16;1.13;;;0.95;;
56670;SDS011;42545;50.054;8.306;2023-05-10T04:11:42;1.08;;;0.90;;
56670;SDS011;42545;50.054;8.306;2023-05-10T04:14:09;1.13;;;0.88;;
56670;SDS011;42545;50.054;8.306;2023-05-10T04:16:35;1.67;;;1.00;;
56670;SDS011;42545;50.054;8.306;2023-05-10T04:19:04;0.75;;;0.70;;
56670;SDS011;42545;50.054;8.306;2023-05-10T04:21:30;1.77;;;1.13;;
56670;SDS011;42545;50.054;8.306;2023-05-10T04:23:57;1.33;;;0.90;;
56670;SDS011;42545;50.054;8.306;2023-05-10T04:26:24;1.10;;;0.80;;
56670;SDS011;42545;50.054;8.306;2023-05-10T04:28:51;1.67;;;1.05;;
56670;SDS011;42545;50.054;8.306;2023-05-10T04:31:17;0.80;;;0.80;;
56670;SDS011;42545;50.054;8.306;2023-05-10T04:33:44;1.10;;;0.90;;
56670;SDS011;42545;50.054;8.306;2023-05-10T04:36:12;0.90;;;0.90;;
56670;SDS011;42545;50.054;8.306;2023-05-10T04:38:38;1.23;;;0.90;;
56670;SDS011;42545;50.054;8.306;2023-05-10T04:41:05;1.38;;;1.00;;
56670;SDS011;42545;50.054;8.306;2023-05-10T04:43:32;1.10;;;1.00;;
56670;SDS011;42545;50.054;8.306;2023-05-10T04:45:59;1.10;;;1.00;;
56670;SDS011;42545;50.054;8.306;2023-05-10T04:48:26;1.20;;;1.10;;
56670;SDS011;42545;50.054;8.306;2023-05-10T04:50:52;2.92;;;1.67;;
56670;SDS011;42545;50.054;8.306;2023-05-10T04:53:20;2.42;;;1.77;;
56670;SDS011;42545;50.054;8.306;2023-05-10T04:55:47;2.22;;;1.60;;
56670;SDS011;42545;50.054;8.306;2023-05-10T04:58:14;2.53;;;1.90;;
56670;SDS011;42545;50.054;8.306;2023-05-10T05:00:41;3.22;;;2.00;;
56670;SDS011;42545;50.054;8.306;2023-05-10T05:03:07;1.92;;;1.48;;
56670;SDS011;42545;50.054;8.306;2023-05-10T05:05:34;1.70;;;1.42;;
56670;SDS011;42545;50.054;8.306;2023-05-10T05:08:01;1.80;;;1.35;;
56670;SDS011;42545;50.054;8.306;2023-05-10T05:10:29;1.60;;;1.30;;
56670;SDS011;42545;50.054;8.306;2023-05-10T05:12:55;3.53;;;2.13;;
56670;SDS011;42545;50.054;8.306;2023-05-10T05:15:22;4.15;;;2.30;;
56670;SDS011;42545;50.054;8.306;2023-05-10T05:17:48;2.38;;;2.00;;
56670;SDS011;42545;50.054;8.306;2023-05-10T05:20:15;2.75;;;2.40;;
56670;SDS011;42545;50.054;8.306;2023-05-10T05:22:42;2.90;;;2.22;;
56670;SDS011;42545;50.054;8.306;2023-05-10T05:25:08;2.97;;;1.60;;
56670;SDS011;42545;50.054;8.306;2023-05-10T05:27:37;2.13;;;1.80;;
56670;SDS011;42545;50.054;8.306;2023-05-10T05:30:04;1.88;;;1.65;;
56670;SDS011;42545;50.054;8.306;2023-05-10T05:32:32;2.35;;;1.83;;
56670;SDS011;42545;50.054;8.306;2023-05-10T05:34:59;2.58;;;2.00;;
56670;SDS011;42545;50.054;8.306;2023-05-10T05:37:25;2.13;;;1.58;;
56670;SDS011;42545;50.054;8.306;2023-05-10T05:39:52;1.58;;;1.35;;
56670;SDS011;42545;50.054;8.306;2023-05-10T05:42:19;1.70;;;1.50;;
56670;SDS011;42545;50.054;8.306;2023-05-10T05:44:48;2.28;;;1.50;;
56670;SDS011;42545;50.054;8.306;2023-05-10T05:47:14;1.73;;;1.63;;
56670;SDS011;42545;50.054;8.306;2023-05-10T05:49:41;1.70;;;1.60;;
56670;SDS011;42545;50.054;8.306;2023-05-10T05:52:07;3.55;;;2.15;;
56670;SDS011;42545;50.054;8.306;2023-05-10T05:54:34;1.75;;;1.60;;
56670;SDS011;42545;50.054;8.306;2023-05-10T05:57:00;2.45;;;1.80;;
56670;SDS011;42545;50.054;8.306;2023-05-10T05:59:27;3.88;;;2.55;;
56670;SDS011;42545;50.054;8.306;2023-05-10T06:01:55;3.17;;;2.22;;
56670;SDS011;42545;50.054;8.306;2023-05-10T06:04:22;2.40;;;1.85;;
56670;SDS011;42545;50.054;8.306;2023-05-10T06:06:48;3.28;;;2.38;;
56670;SDS011;42545;50.054;8.306;2023-05-10T06:09:15;3.35;;;2.20;;
56670;SDS011;42545;50.054;8.306;2023-05-10T06:11:41;5.18;;;2.28;;
56670;SDS011;42545;50.054;8.306;2023-05-10T06:14:08;2.85;;;1.98;;
56670;SDS011;42545;50.054;8.306;2023-05-10T06:16:35;2.97;;;2.08;;
56670;SDS011;42545;50.054;8.306;2023-05-10T06:19:03;7.72;;;4.43;;
56670;SDS011;42545;50.054;8.306;2023-05-10T06:21:29;4.82;;;2.97;;
56670;SDS011;42545;50.054;8.306;2023-05-10T06:23:56;4.90;;;3.30;;
56670;SDS011;42545;50.054;8.306;2023-05-10T06:26:22;5.03;;;3.58;;
56670;SDS011;42545;50.054;8.306;2023-05-10T06:28:49;5.70;;;3.42;;
56670;SDS011;42545;50.054;8.306;2023-05-10T06:31:16;3.17;;;2.60;;
56670;SDS011;42545;50.054;8.306;2023-05-10T06:33:43;3.67;;;2.85;;
56670;SDS011;42545;50.054;8.306;2023-05-10T06:36:11;3.30;;;2.45;;
56670;SDS011;42545;50.054;8.306;2023-05-10T06:38:38;2.83;;;2.47;;
56670;SDS011;42545;50.054;8.306;2023-05-10T06:41:04;4.20;;;2.92;;
56670;SDS011;42545;50.054;8.306;2023-05-10T06:43:31;8.60;;;3.60;;
56670;SDS011;42545;50.054;8.306;2023-05-10T06:45:58;3.42;;;2.95;;
56670;SDS011;42545;50.054;8.306;2023-05-10T06:48:24;5.57;;;3.28;;
56670;SDS011;42545;50.054;8.306;2023-05-10T06:50:51;4.47;;;3.22;;
56670;SDS011;42545;50.054;8.306;2023-05-10T06:53:19;4.78;;;2.60;;
56670;SDS011;42545;50.054;8.306;2023-05-10T06:55:45;4.78;;;2.80;;
56670;SDS011;42545;50.054;8.306;2023-05-10T06:58:12;4.05;;;2.80;;
56670;SDS011;42545;50.054;8.306;2023-05-10T07:00:38;4.15;;;2.28;;
56670;SDS011;42545;50.054;8.306;2023-05-10T07:03:07;3.03;;;2.30;;
56670;SDS011;42545;50.054;8.306;2023-05-10T07:05:34;3.30;;;2.40;;
56670;SDS011;42545;50.054;8.306;2023-05-10T07:08:01;4.25;;;2.78;;
56670;SDS011;42545;50.054;8.306;2023-05-10T07:10:29;4.53;;;2.40;;
56670;SDS011;42545;50.054;8.306;2023-05-10T07:12:55;3.33;;;2.55;;
56670;SDS011;42545;50.054;8.306;2023-05-10T07:15:22;4.10;;;2.63;;
56670;SDS011;42545;50.054;8.306;2023-05-10T07:17:49;3.50;;;2.40;;
56670;SDS011;42545;50.054;8.306;2023-05-10T07:20:16;4.45;;;2.58;;
56670;SDS011;42545;50.054;8.306;2023-05-10T07:22:43;2.85;;;2.25;;
56670;SDS011;42545;50.054;8.306;2023-05-10T07:25:10;4.53;;;2.10;;
56670;SDS011;42545;50.054;8.306;2023-05-10T07:27:38;3.65;;;2.33;;
56670;SDS011;42545;50.054;8.306;2023-05-10T07:30:05;2.67;;;2.00;;
56670;SDS011;42545;50.054;8.306;2023-05-10T07:32:32;2.75;;;2.00;;
56670;SDS011;42545;50.054;8.306;2023-05-10T07:34:59;2.00;;;1.70;;
56670;SDS011;42545;50.054;8.306;2023-05-10T07:37:26;2.25;;;1.80;;
56670;SDS011;42545;50.054;8.306;2023-05-10T07:39:52;2.20;;;1.70;;
56670;SDS011;42545;50.054;8.306;2023-05-10T07:42:19;2.72;;;1.90;;
56670;SDS011;42545;50.054;8.306;2023-05-10T07:44:47;5.00;;;1.70;;
56670;SDS011;42545;50.054;8.306;2023-05-10T07:47:13;7.88;;;2.72;;
56670;SDS011;42545;50.054;8.306;2023-05-10T07:49:40;3.33;;;2.30;;
56670;SDS011;42545;50.054;8.306;2023-05-10T07:52:07;2.30;;;2.10;;
56670;SDS011;42545;50.054;8.306;2023-05-10T07:54:33;1.98;;;1.75;;
56670;SDS011;42545;50.054;8.306;2023-05-10T07:57:00;2.67;;;2.20;;
56670;SDS011;42545;50.054;8.306;2023-05-10T07:59:26;6.75;;;2.47;;
56670;SDS011;42545;50.054;8.306;2023-05-10T08:01:55;4.10;;;2.28;;
56670;SDS011;42545;50.054;8.306;2023-05-10T08:04:21;2.47;;;1.88;;
56670;SDS011;42545;50.054;8.306;2023-05-10T08:06:48;3.85;;;2.30;;
56670;SDS011;42545;50.054;8.306;2023-05-10T08:09:14;2.45;;;1.67;;
56670;SDS011;42545;50.054;8.306;2023-05-10T08:11:42;3.67;;;2.00;;
56670;SDS011;42545;50.054;8.306;2023-05-10T08:14:09;3.90;;;2.30;;
56670;SDS011;42545;50.054;8.306;2023-05-10T08:16:36;2.88;;;2.30;;
56670;SDS011;42545;50.054;8.306;2023-05-10T08:19:04;3.25;;;1.70;;
56670;SDS011;42545;50.054;8.306;2023-05-10T08:21:31;2.38;;;1.67;;
56670;SDS011;42545;50.054;8.306;2023-05-10T08:23:57;2.22;;;1.90;;
56670;SDS011;42545;50.054;8.306;2023-05-10T08:26:24;2.28;;;1.60;;
56670;SDS011;42545;50.054;8.306;2023-05-10T08:28:50;2.33;;;1.70;;
56670;SDS011;42545;50.054;8.306;2023-05-10T08:31:17;3.15;;;1.80;;
56670;SDS011;42545;50.054;8.306;2023-05-10T08:33:44;1.80;;;1.50;;
56670;SDS011;42545;50.054;8.306;2023-05-10T08:36:12;2.08;;;1.60;;
56670;SDS011;42545;50.054;8.306;2023-05-10T08:38:44;2.35;;;1.70;;
56670;SDS011;42545;50.054;8.306;2023-05-10T08:41:11;2.55;;;1.60;;
56670;SDS011;42545;50.054;8.306;2023-05-10T08:43:37;2.40;;;1.58;;
56670;SDS011;42545;50.054;8.306;2023-05-10T08:46:06;2.47;;;1.48;;
56670;SDS011;42545;50.054;8.306;2023-05-10T08:48:35;2.33;;;1.48;;
56670;SDS011;42545;50.054;8.306;2023-05-10T08:51:03;2.33;;;1.45;;
56670;SDS011;42545;50.054;8.306;2023-05-10T08:53:32;1.60;;;1.30;;
56670;SDS011;42545;50.054;8.306;2023-05-10T08:56:02;1.95;;;1.38;;
56670;SDS011;42545;50.054;8.306;2023-05-10T08:58:30;2.33;;;1.70;;
56670;SDS011;42545;50.054;8.306;2023-05-10T09:00:57;1.63;;;1.35;;
56670;SDS011;42545;50.054;8.306;2023-05-10T09:03:24;1.55;;;1.30;;
56670;SDS011;42545;50.054;8.306;2023-05-10T09:05:51;1.70;;;1.60;;
56670;SDS011;42545;50.054;8.306;2023-05-10T09:08:22;1.77;;;1.20;;
56670;SDS011;42545;50.054;8.306;2023-05-10T09:10:51;2.28;;;1.50;;
56670;SDS011;42545;50.054;8.306;2023-05-10T09:13:19;2.00;;;1.52;;
56670;SDS011;42545;50.054;8.306;2023-05-10T09:15:47;3.33;;;1.70;;
56670;SDS011;42545;50.054;8.306;2023-05-10T09:18:14;1.55;;;1.30;;
56670;SDS011;42545;50.054;8.306;2023-05-10T09:20:41;2.17;;;1.50;;
56670;SDS011;42545;50.054;8.306;2023-05-10T09:23:08;2.83;;;1.52;;
56670;SDS011;42545;50.054;8.306;2023-05-10T09:25:35;2.47;;;1.60;;
56670;SDS011;42545;50.054;8.306;2023-05-10T09:28:07;3.22;;;2.13;;
56670;SDS011;42545;50.054;8.306;2023-05-10T09:30:34;1.67;;;1.50;;
56670;SDS011;42545;50.054;8.306;2023-05-10T09:33:01;1.90;;;1.60;;
56670;SDS011;42545;50.054;8.306;2023-05-10T09:35:28;1.40;;;1.30;;
56670;SDS011;42545;50.054;8.306;2023-05-10T09:37:57;1.50;;;1.40;;
56670;SDS011;42545;50.054;8.306;2023-05-10T09:40:25;2.67;;;1.38;;
56670;SDS011;42545;50.054;8.306;2023-05-10T09:42:55;2.33;;;1.70;;
56670;SDS011;42545;50.054;8.306;2023-05-10T09:45:24;2.63;;;1.30;;
56670;SDS011;42545;50.054;8.306;2023-05-10T09:47:51;2.97;;;1.30;;
56670;SDS011;42545;50.054;8.306;2023-05-10T09:50:18;1.58;;;1.20;;
56670;SDS011;42545;50.054;8.306;2023-05-10T09:52:46;0.90;;;0.90;;
56670;SDS011;42545;50.054;8.306;2023-05-10T09:55:13;3.40;;;1.30;;
56670;SDS011;42545;50.054;8.306;2023-05-10T09:57:40;2.67;;;1.13;;
56670;SDS011;42545;50.054;8.306;2023-05-10T10:00:07;2.80;;;1.20;;
56670;SDS011;42545;50.054;8.306;2023-05-10T10:02:37;1.90;;;1.38;;
56670;SDS011;42545;50.054;8.306;2023-05-10T10:05:06;1.88;;;1.52;;
56670;SDS011;42545;50.054;8.306;2023-05-10T10:07:33;2.10;;;1.30;;
56670;SDS011;42545;50.054;8.306;2023-05-10T10:10:00;1.40;;;1.02;;
56670;SDS011;42545;50.054;8.306;2023-05-10T10:12:29;1.23;;;1.13;;
56670;SDS011;42545;50.054;8.306;2023-05-10T10:14:56;2.03;;;1.17;;
56670;SDS011;42545;50.054;8.306;2023-05-10T10:17:26;1.45;;;1.35;;
56670;SDS011;42545;50.054;8.306;2023-05-10T10:19:55;3.25;;;1.60;;
56670;SDS011;42545;50.054;8.306;2023-05-10T10:22:23;1.38;;;1.20;;
56670;SDS011;42545;50.054;8.306;2023-05-10T10:24:50;1.60;;;1.42;;
56670;SDS011;42545;50.054;8.306;2023-05-10T10:27:19;2.13;;;1.30;;
56670;SDS011;42545;50.054;8.306;2023-05-10T10:29:55;2.28;;;1.50;;
56670;SDS011;42545;50.054;8.306;2023-05-10T10:32:29;1.13;;;1.02;;
56670;SDS011;42545;50.054;8.306;2023-05-10T10:35:05;2.42;;;1.40;;
56670;SDS011;42545;50.054;8.306;2023-05-10T10:37:43;1.40;;;1.30;;
56670;SDS011;42545;50.054;8.306;2023-05-10T10:40:26;2.03;;;1.52;;
56670;SDS011;42545;50.054;8.306;2023-05-10T10:42:54;1.35;;;1.10;;
56670;SDS011;42545;50.054;8.306;2023-05-10T10:45:21;1.40;;;1.30;;
56670;SDS011;42545;50.054;8.306;2023-05-10T10:47:50;1.30;;;1.20;;
56670;SDS011;42545;50.054;8.306;2023-05-10T10:50:44;2.47;;;1.40;;
56670;SDS011;42545;50.054;8.306;2023-05-10T10:53:11;1.20;;;1.10;;
56670;SDS011;42545;50.054;8.306;2023-05-10T10:55:44;1.20;;;1.10;;
56670;SDS011;42545;50.054;8.306;2023-05-10T10:58:15;0.90;;;0.90;;
56670;SDS011;42545;50.054;8.306;2023-05-10T11:01:08;1.30;;;1.20;;
56670;SDS011;42545;50.054;8.306;2023-05-10T11:03:36;1.45;;;1.33;;
56670;SDS011;42545;50.054;8.306;2023-05-10T11:06:04;1.00;;;1.00;;
56670;SDS011;42545;50.054;8.306;2023-05-10T11:08:32;1.23;;;1.10;;
56670;SDS011;42545;50.054;8.306;2023-05-10T11:11:04;1.00;;;0.90;;
56670;SDS011;42545;50.054;8.306;2023-05-10T11:13:38;1.35;;;1.10;;
56670;SDS011;42545;50.054;8.306;2023-05-10T11:16:09;1.30;;;1.20;;
56670;SDS011;42545;50.054;8.306;2023-05-10T11:18:37;1.08;;;0.98;;
56670;SDS011;42545;50.054;8.306;2023-05-10T11:21:07;1.30;;;1.20;;
56670;SDS011;42545;50.054;8.306;2023-05-10T11:23:47;3.10;;;1.27;;
56670;SDS011;42545;50.054;8.306;2023-05-10T11:26:15;1.15;;;1.05;;
56670;SDS011;42545;50.054;8.306;2023-05-10T11:28:43;2.80;;;1.25;;
56670;SDS011;42545;50.054;8.306;2023-05-10T11:31:10;1.98;;;1.13;;
56670;SDS011;42545;50.054;8.306;2023-05-10T11:33:43;2.25;;;1.27;;
56670;SDS011;42545;50.054;8.306;2023-05-10T11:36:15;1.30;;;1.05;;
56670;SDS011;42545;50.054;8.306;2023-05-10T11:38:43;1.23;;;1.13;;
56670;SDS011;42545;50.054;8.306;2023-05-10T11:41:10;2.20;;;1.30;;
56670;SDS011;42545;50.054;8.306;2023-05-10T11:43:38;1.75;;;1.20;;
56670;SDS011;42545;50.054;8.306;2023-05-10T11:46:06;1.35;;;1.20;;
56670;SDS011;42545;50.054;8.306;2023-05-10T11:48:34;1.10;;;0.98;;
56670;SDS011;42545;50.054;8.306;2023-05-10T11:51:01;1.20;;;1.10;;
56670;SDS011;42545;50.054;8.306;2023-05-10T11:53:31;1.48;;;1.27;;
56670;SDS011;42545;50.054;8.306;2023-05-10T11:56:02;1.20;;;1.10;;
56670;SDS011;42545;50.054;8.306;2023-05-10T11:58:30;1.52;;;1.08;;
56670;SDS011;42545;50.054;8.306;2023-05-10T12:00:59;1.20;;;1.08;;
56670;SDS011;42545;50.054;8.306;2023-05-10T12:03:27;1.10;;;1.00;;
56670;SDS011;42545;50.054;8.306;2023-05-10T12:05:54;0.80;;;0.80;;
56670;SDS011;42545;50.054;8.306;2023-05-10T12:08:22;1.15;;;0.85;;
56670;SDS011;42545;50.054;8.306;2023-05-10T12:10:51;0.80;;;0.80;;
56670;SDS011;42545;50.054;8.306;2023-05-10T12:13:18;1.27;;;1.17;;
56670;SDS011;42545;50.054;8.306;2023-05-10T12:15:46;1.13;;;1.00;;
56670;SDS011;42545;50.054;8.306;2023-05-10T12:18:13;1.20;;;1.10;;
56670;SDS011;42545;50.054;8.306;2023-05-10T12:20:40;1.10;;;1.00;;
56670;SDS011;42545;50.054;8.306;2023-05-10T12:23:08;0.88;;;0.88;;
56670;SDS011;42545;50.054;8.306;2023-05-10T12:25:35;0.80;;;0.80;;
56670;SDS011;42545;50.054;8.306;2023-05-10T12:28:05;0.90;;;0.80;;
56670;SDS011;42545;50.054;8.306;2023-05-10T12:30:33;0.90;;;0.90;;
56670;SDS011;42545;50.054;8.306;2023-05-10T12:33:02;1.07;;;1.07;;
56670;SDS011;42545;50.054;8.306;2023-05-10T12:35:33;2.00;;;0.95;;
56670;SDS011;42545;50.054;8.306;2023-05-10T12:38:26;1.20;;;0.90;;
56670;SDS011;42545;50.054;8.306;2023-05-10T12:40:55;1.40;;;1.30;;
56670;SDS011;42545;50.054;8.306;2023-05-10T12:43:23;1.52;;;0.90;;
56670;SDS011;42545;50.054;8.306;2023-05-10T12:45:49;1.13;;;1.02;;
56670;SDS011;42545;50.054;8.306;2023-05-10T12:48:17;1.50;;;0.98;;
56670;SDS011;42545;50.054;8.306;2023-05-10T12:50:46;2.03;;;1.00;;
56670;SDS011;42545;50.054;8.306;2023-05-10T12:53:13;1.13;;;0.88;;
56670;SDS011;42545;50.054;8.306;2023-05-10T12:55:41;1.00;;;0.90;;
56670;SDS011;42545;50.054;8.306;2023-05-10T12:58:08;1.25;;;0.73;;
56670;SDS011;42545;50.054;8.306;2023-05-10T13:00:36;1.55;;;1.02;;
56670;SDS011;42545;50.054;8.306;2023-05-10T13:03:03;3.50;;;1.08;;
56670;SDS011;42545;50.054;8.306;2023-05-10T13:05:30;1.23;;;0.82;;
56670;SDS011;42545;50.054;8.306;2023-05-10T13:07:56;1.02;;;0.82;;
56670;SDS011;42545;50.054;8.306;2023-05-10T13:10:23;1.02;;;0.90;;
56670;SDS011;42545;50.054;8.306;2023-05-10T13:12:51;3.15;;;0.70;;
56670;SDS011;42545;50.054;8.306;2023-05-10T13:15:17;0.63;;;0.60;;
56670;SDS011;42545;50.054;8.306;2023-05-10T13:17:46;1.63;;;1.27;;
56670;SDS011;42545;50.054;8.306;2023-05-10T13:20:12;1.25;;;1.00;;
56670;SDS011;42545;50.054;8.306;2023-05-10T13:22:40;1.77;;;1.20;;
56670;SDS011;42545;50.054;8.306;2023-05-10T13:25:07;1.70;;;0.90;;
56670;SDS011;42545;50.054;8.306;2023-05-10T13:27:35;0.90;;;0.80;;
56670;SDS011;42545;50.054;8.306;2023-05-10T13:30:01;1.90;;;1.00;;
56670;SDS011;42545;50.054;8.306;2023-05-10T13:32:29;0.75;;;0.70;;
56670;SDS011;42545;50.054;8.306;2023-05-10T13:34:57;0.70;;;0.70;;
56670;SDS011;42545;50.054;8.306;2023-05-10T13:37:23;0.93;;;0.82;;
56670;SDS011;42545;50.054;8.306;2023-05-10T13:39:50;0.60;;;0.60;;
56670;SDS011;42545;50.054;8.306;2023-05-10T13:42:18;1.13;;;1.02;;
56670;SDS011;42545;50.054;8.306;2023-05-10T13:47:13;1.00;;;0.70;;
56670;SDS011;42545;50.054;8.306;2023-05-10T13:49:39;0.70;;;0.70;;
56670;SDS011;42545;50.054;8.306;2023-05-10T13:52:08;2.20;;;1.02;;
56670;SDS011;42545;50.054;8.306;2023-05-10T13:54:35;1.35;;;1.08;;
56670;SDS011;42545;50.054;8.306;2023-05-10T13:57:02;3.58;;;1.65;;
56670;SDS011;42545;50.054;8.306;2023-05-10T13:59:29;2.20;;;1.60;;
56670;SDS011;42545;50.054;8.306;2023-05-10T14:01:57;1.92;;;1.27;;
56670;SDS011;42545;50.054;8.306;2023-05-10T14:04:25;1.80;;;1.00;;
56670;SDS011;42545;50.054;8.306;2023-05-10T14:06:51;1.55;;;0.93;;
56670;SDS011;42545;50.054;8.306;2023-05-10T14:09:20;1.63;;;1.17;;
56670;SDS011;42545;50.054;8.306;2023-05-10T14:11:49;1.65;;;1.20;;
56670;SDS011;42545;50.054;8.306;2023-05-10T14:14:16;1.48;;;1.02;;
56670;SDS011;42545;50.054;8.306;2023-05-10T14:16:42;1.58;;;1.27;;
56670;SDS011;42545;50.054;8.306;2023-05-10T14:19:10;1.30;;;0.88;;
56670;SDS011;42545;50.054;8.306;2023-05-10T14:21:38;1.35;;;0.85;;
56670;SDS011;42545;50.054;8.306;2023-05-10T14:24:04;1.00;;;0.60;;
56670;SDS011;42545;50.054;8.306;2023-05-10T14:26:34;0.63;;;0.63;;
56670;SDS011;42545;50.054;8.306;2023-05-10T14:29:00;1.08;;;0.77;;
56670;SDS011;42545;50.054;8.306;2023-05-10T14:31:27;0.60;;;0.60;;
56670;SDS011;42545;50.054;8.306;2023-05-10T14:33:55;0.82;;;0.70;;
56670;SDS011;42545;50.054;8.306;2023-05-10T14:36:24;1.23;;;0.90;;
56670;SDS011;42545;50.054;8.306;2023-05-10T14:38:50;1.02;;;0.80;;
56670;SDS011;42545;50.054;8.306;2023-05-10T14:41:17;1.98;;;0.70;;
56670;SDS011;42545;50.054;8.306;2023-05-10T14:43:45;1.95;;;0.98;;
56670;SDS011;42545;50.054;8.306;2023-05-10T14:46:12;1.25;;;1.13;;
56670;SDS011;42545;50.054;8.306;2023-05-10T14:48:41;1.73;;;0.90;;
56670;SDS011;42545;50.054;8.306;2023-05-10T14:51:08;1.25;;;0.80;;
56670;SDS011;42545;50.054;8.306;2023-05-10T14:53:35;1.25;;;0.80;;
56670;SDS011;42545;50.054;8.306;2023-05-10T14:56:01;1.02;;;0.80;;
56670;SDS011;42545;50.054;8.306;2023-05-10T14:58:28;1.00;;;0.70;;
56670;SDS011;42545;50.054;8.306;2023-05-10T15:00:57;1.33;;;0.73;;